createdAt,value
2023-04-11T00:00:58.579Z,100.00
2023-04-11T00:03:26.609Z,100.00
2023-04-11T00:05:54.515Z,100.00
2023-04-11T00:08:22.302Z,100.00
2023-04-11T00:10:50.063Z,100.00
2023-04-11T00:13:19.684Z,100.00
2023-04-11T00:15:48.880Z,100.00
2023-04-11T00:18:17.044Z,100.00
2023-04-11T00:20:44.842Z,100.00
2023-04-11T00:23:13.348Z,100.00
2023-04-11T00:25:41.399Z,100.00
2023-04-11T00:28:10.957Z,100.00
2023-04-11T00:30:39.343Z,100.00
2023-04-11T00:33:08.445Z,100.00
2023-04-11T00:35:37.877Z,100.00
2023-04-11T00:38:05.770Z,100.00
2023-04-11T00:40:33.617Z,100.00
2023-04-11T00:43:01.639Z,100.00
2023-04-11T00:45:29.547Z,100.00
2023-04-11T00:47:57.562Z,100.00
2023-04-11T00:50:27.196Z,100.00
2023-04-11T00:52:57.751Z,100.00
2023-04-11T00:55:25.671Z,100.00
2023-04-11T00:57:55.175Z,100.00
2023-04-11T01:00:23.580Z,100.00
2023-04-11T01:02:51.529Z,100.00
2023-04-11T01:05:20.149Z,100.00
2023-04-11T01:07:52.145Z,100.00
2023-04-11T01:10:20.469Z,100.00
2023-04-11T01:12:48.618Z,100.00
2023-04-11T01:15:16.636Z,100.00
2023-04-11T01:17:45.598Z,100.00
2023-04-11T01:20:13.945Z,100.00
2023-04-11T01:22:42.919Z,100.00
2023-04-11T01:25:13.454Z,100.00
2023-04-11T01:27:42.306Z,100.00
2023-04-11T01:30:12.458Z,100.00
2023-04-11T01:32:40.270Z,100.00
2023-04-11T01:35:09.629Z,100.00
2023-04-11T01:37:37.638Z,100.00
2023-04-11T01:40:06.686Z,100.00
2023-04-11T01:42:36.739Z,100.00
2023-04-11T01:45:07.008Z,100.00
2023-04-11T01:47:34.876Z,100.00
2023-04-11T01:50:02.715Z,100.00
2023-04-11T01:52:30.479Z,100.00
2023-04-11T01:54:58.363Z,100.00
2023-04-11T01:57:26.457Z,100.00
2023-04-11T01:59:55.622Z,100.00
2023-04-11T02:02:23.548Z,100.00
2023-04-11T02:04:51.337Z,100.00
2023-04-11T02:07:20.796Z,100.00
2023-04-11T02:09:48.686Z,100.00
2023-04-11T02:12:16.445Z,100.00
2023-04-11T02:14:45.726Z,100.00
2023-04-11T02:17:14.870Z,100.00
2023-04-11T02:19:45.276Z,100.00
2023-04-11T02:22:13.201Z,100.00
2023-04-11T02:24:41.481Z,100.00
2023-04-11T02:27:09.558Z,100.00
2023-04-11T02:29:37.377Z,100.00
2023-04-11T02:32:05.502Z,100.00
2023-04-11T02:34:34.788Z,100.00
2023-04-11T02:37:02.754Z,100.00
2023-04-11T02:39:31.620Z,100.00
2023-04-11T02:41:59.363Z,100.00
2023-04-11T02:44:29.375Z,100.00
2023-04-11T02:46:57.227Z,100.00
2023-04-11T02:49:25.016Z,100.00
2023-04-11T02:51:54.136Z,100.00
2023-04-11T02:54:22.003Z,100.00
2023-04-11T02:56:49.770Z,100.00
2023-04-11T02:59:17.558Z,100.00
2023-04-11T03:01:46.089Z,100.00
2023-04-11T03:04:13.988Z,100.00
2023-04-11T03:06:41.834Z,100.00
2023-04-11T03:09:11.778Z,100.00
2023-04-11T03:11:39.573Z,100.00
2023-04-11T03:14:07.373Z,100.00
2023-04-11T03:16:35.234Z,100.00
2023-04-11T03:19:03.038Z,100.00
2023-04-11T03:21:31.400Z,100.00
2023-04-11T03:23:59.403Z,100.00
2023-04-11T03:26:28.535Z,100.00
2023-04-11T03:28:56.458Z,100.00
2023-04-11T03:31:24.398Z,100.00
2023-04-11T03:33:52.171Z,100.00
2023-04-11T03:36:20.039Z,100.00
2023-04-11T03:38:47.864Z,100.00
2023-04-11T03:41:15.806Z,100.00
2023-04-11T03:43:44.938Z,100.00
2023-04-11T03:46:12.825Z,100.00
2023-04-11T03:48:40.605Z,100.00
2023-04-11T03:51:08.541Z,100.00
2023-04-11T03:53:36.342Z,100.00
2023-04-11T03:56:04.180Z,100.00
2023-04-11T03:58:32.076Z,100.00
2023-04-11T04:01:02.613Z,100.00
2023-04-11T04:03:30.630Z,100.00
2023-04-11T04:05:58.646Z,100.00
2023-04-11T04:08:26.369Z,100.00
2023-04-11T04:10:54.851Z,100.00
2023-04-11T04:13:22.726Z,100.00
2023-04-11T04:15:51.427Z,100.00
2023-04-11T04:18:20.623Z,100.00
2023-04-11T04:20:48.598Z,100.00
2023-04-11T04:23:18.137Z,100.00
2023-04-11T04:25:49.241Z,100.00
2023-04-11T04:28:20.466Z,100.00
2023-04-11T04:30:54.089Z,100.00
2023-04-11T04:33:23.817Z,100.00
2023-04-11T04:35:52.465Z,100.00
2023-04-11T04:38:20.295Z,100.00
2023-04-11T04:40:50.459Z,100.00
2023-04-11T04:43:23.633Z,100.00
2023-04-11T04:45:51.815Z,100.00
2023-04-11T04:48:19.655Z,100.00
2023-04-11T04:50:48.785Z,100.00
2023-04-11T04:53:16.561Z,100.00
2023-04-11T04:55:44.314Z,100.00
2023-04-11T04:58:12.079Z,100.00
2023-04-11T05:00:40.205Z,100.00
2023-04-11T05:03:08.773Z,100.00
2023-04-11T05:05:36.730Z,100.00
2023-04-11T05:08:06.278Z,100.00
2023-04-11T05:10:34.028Z,100.00
2023-04-11T05:13:01.763Z,100.00
2023-04-11T05:15:29.537Z,100.00
2023-04-11T05:17:57.518Z,100.00
2023-04-11T05:20:27.020Z,100.00
2023-04-11T05:22:54.825Z,100.00
2023-04-11T05:25:23.886Z,100.00
2023-04-11T05:27:51.603Z,100.00
2023-04-11T05:30:19.478Z,100.00
2023-04-11T05:32:47.748Z,100.00
2023-04-11T05:35:15.681Z,100.00
2023-04-11T05:37:44.888Z,100.00
2023-04-11T05:40:13.191Z,100.00
2023-04-11T05:42:42.297Z,100.00
2023-04-11T05:45:11.389Z,100.00
2023-04-11T05:47:39.200Z,100.00
2023-04-11T05:50:08.528Z,100.00
2023-04-11T05:52:36.325Z,100.00
2023-04-11T05:55:04.529Z,100.00
2023-04-11T05:57:32.372Z,100.00
2023-04-11T06:00:06.876Z,100.00
2023-04-11T06:02:34.910Z,100.00
2023-04-11T06:05:03.965Z,100.00
2023-04-11T06:07:32.658Z,100.00
2023-04-11T06:10:00.631Z,100.00
2023-04-11T06:12:29.336Z,100.00
2023-04-11T06:14:57.128Z,100.00
2023-04-11T06:17:26.422Z,100.00
2023-04-11T06:19:54.270Z,100.00
2023-04-11T06:22:22.097Z,100.00
2023-04-11T06:24:49.973Z,100.00
2023-04-11T06:27:17.937Z,100.00
2023-04-11T06:29:45.717Z,100.00
2023-04-11T06:32:13.734Z,100.00
2023-04-11T06:34:43.256Z,100.00
2023-04-11T06:37:11.017Z,100.00
2023-04-11T06:39:38.863Z,100.00
2023-04-11T06:42:06.750Z,100.00
2023-04-11T06:44:34.536Z,100.00
2023-04-11T06:47:02.369Z,100.00
2023-04-11T06:49:31.307Z,100.00
2023-04-11T06:52:00.462Z,100.00
2023-04-11T06:54:28.242Z,100.00
2023-04-11T06:56:57.221Z,100.00
2023-04-11T06:59:25.031Z,100.00
2023-04-11T07:01:52.970Z,100.00
2023-04-11T07:04:21.017Z,100.00
2023-04-11T07:06:48.919Z,100.00
2023-04-11T07:09:18.027Z,100.00
2023-04-11T07:11:46.260Z,100.00
2023-04-11T07:14:14.101Z,100.00
2023-04-11T07:16:41.915Z,100.00
2023-04-11T07:19:09.791Z,100.00
2023-04-11T07:21:38.273Z,100.00
2023-04-11T07:24:06.562Z,100.00
2023-04-11T07:26:38.575Z,100.00
2023-04-11T07:29:09.129Z,100.00
2023-04-11T07:31:38.400Z,100.00
2023-04-11T07:34:06.414Z,100.00
2023-04-11T07:36:34.933Z,100.00
2023-04-11T07:39:04.385Z,100.00
2023-04-11T07:41:32.174Z,100.00
2023-04-11T07:44:01.571Z,100.00
2023-04-11T07:46:29.373Z,100.00
2023-04-11T07:48:57.122Z,100.00
2023-04-11T07:51:24.894Z,100.00
2023-04-11T07:53:52.790Z,100.00
2023-04-11T07:56:20.875Z,100.00
2023-04-11T07:58:48.624Z,100.00
2023-04-11T08:01:25.789Z,100.00
2023-04-11T08:03:55.810Z,100.00
2023-04-11T08:06:24.367Z,100.00
2023-04-11T08:08:52.330Z,100.00
2023-04-11T08:11:20.092Z,100.00
2023-04-11T08:13:47.966Z,100.00
2023-04-11T08:16:16.262Z,100.00
2023-04-11T08:18:45.644Z,100.00
2023-04-11T08:21:13.854Z,100.00
2023-04-11T08:23:42.410Z,100.00
2023-04-11T08:26:11.871Z,100.00
2023-04-11T08:28:42.450Z,100.00
2023-04-11T08:31:13.234Z,100.00
2023-04-11T08:33:41.532Z,100.00
2023-04-11T08:36:11.800Z,100.00
2023-04-11T08:38:40.925Z,100.00
2023-04-11T08:41:08.974Z,100.00
2023-04-11T08:43:37.274Z,100.00
2023-04-11T08:46:05.697Z,100.00
2023-04-11T08:48:33.572Z,100.00
2023-04-11T08:51:01.451Z,100.00
2023-04-11T08:53:31.505Z,100.00
2023-04-11T08:55:59.935Z,100.00
2023-04-11T08:58:27.781Z,100.00
2023-04-11T09:00:55.568Z,100.00
2023-04-11T09:03:23.496Z,100.00
2023-04-11T09:05:51.530Z,100.00
2023-04-11T09:08:20.026Z,100.00
2023-04-11T09:10:49.212Z,100.00
2023-04-11T09:13:22.557Z,100.00
2023-04-11T09:16:05.722Z,100.00
2023-04-11T09:18:34.782Z,100.00
2023-04-11T09:21:04.461Z,100.00
2023-04-11T09:23:32.469Z,100.00
2023-04-11T09:26:01.693Z,100.00
2023-04-11T09:28:39.973Z,100.00
2023-04-11T09:31:09.620Z,100.00
2023-04-11T09:33:37.487Z,100.00
2023-04-11T09:36:20.678Z,100.00
2023-04-11T09:38:48.527Z,100.00
2023-04-11T09:41:30.871Z,100.00
2023-04-11T09:43:58.870Z,100.00
2023-04-11T09:46:27.008Z,100.00
2023-04-11T09:48:56.207Z,100.00
2023-04-11T09:53:56.223Z,100.00
2023-04-11T09:56:26.647Z,100.00
2023-04-11T09:58:56.484Z,100.00
2023-04-11T10:01:25.511Z,100.00
2023-04-11T10:03:54.294Z,100.00
2023-04-11T10:06:31.551Z,100.00
2023-04-11T10:09:08.114Z,100.00
2023-04-11T10:11:37.665Z,100.00
2023-04-11T10:14:05.535Z,100.00
2023-04-11T10:16:34.497Z,100.00
2023-04-11T10:19:25.735Z,100.00
2023-04-11T10:21:53.620Z,100.00
2023-04-11T10:24:22.192Z,100.00
2023-04-11T10:26:53.084Z,100.00
2023-04-11T10:29:51.216Z,100.00
2023-04-11T10:32:24.411Z,100.00
2023-04-11T10:35:20.905Z,100.00
2023-04-11T10:37:49.097Z,100.00
2023-04-11T10:40:20.388Z,100.00
2023-04-11T10:42:49.633Z,100.00
2023-04-11T10:45:19.251Z,100.00
2023-04-11T10:48:03.383Z,100.00
2023-04-11T10:50:42.920Z,100.00
2023-04-11T10:53:36.459Z,100.00
2023-04-11T10:56:04.577Z,100.00
2023-04-11T10:58:38.813Z,100.00
2023-04-11T11:01:25.775Z,100.00
2023-04-11T11:04:02.530Z,100.00
2023-04-11T11:06:31.035Z,100.00
2023-04-11T11:08:59.667Z,100.00
2023-04-11T11:11:27.407Z,100.00
2023-04-11T11:13:57.087Z,100.00
2023-04-11T11:16:26.558Z,100.00
2023-04-11T11:18:55.782Z,100.00
2023-04-11T11:21:28.406Z,100.00
2023-04-11T11:23:58.658Z,100.00
2023-04-11T11:26:37.808Z,100.00
2023-04-11T11:29:07.058Z,100.00
2023-04-11T11:31:39.468Z,100.00
2023-04-11T11:36:42.192Z,100.00
2023-04-11T11:39:11.496Z,100.00
2023-04-11T11:41:41.256Z,100.00
2023-04-11T11:44:22.607Z,100.00
2023-04-11T11:47:02.071Z,100.00
2023-04-11T11:49:44.231Z,100.00
2023-04-11T11:52:12.143Z,100.00
2023-04-11T11:54:47.096Z,100.00
2023-04-11T11:57:22.781Z,100.00
2023-04-11T11:59:56.168Z,100.00
2023-04-11T12:02:26.112Z,100.00
2023-04-11T12:04:59.938Z,100.00
2023-04-11T12:07:32.427Z,100.00
2023-04-11T12:10:01.156Z,100.00
2023-04-11T12:12:36.328Z,100.00
2023-04-11T12:15:11.643Z,100.00
2023-04-11T12:17:39.817Z,100.00
2023-04-11T12:20:08.863Z,100.00
2023-04-11T12:22:36.639Z,100.00
2023-04-11T12:25:08.897Z,100.00
2023-04-11T12:27:38.087Z,100.00
2023-04-11T12:30:08.939Z,100.00
2023-04-11T12:32:37.143Z,100.00
2023-04-11T12:35:07.014Z,100.00
2023-04-11T12:37:35.535Z,100.00
2023-04-11T12:40:07.029Z,100.00
2023-04-11T12:42:39.054Z,100.00
2023-04-11T12:45:16.032Z,100.00
2023-04-11T12:47:44.420Z,100.00
2023-04-11T12:50:12.609Z,100.00
2023-04-11T12:52:40.686Z,100.00
2023-04-11T12:55:09.858Z,100.00
2023-04-11T12:57:37.752Z,100.00
2023-04-11T13:00:08.179Z,100.00
2023-04-11T13:02:43.272Z,100.00
2023-04-11T13:05:15.077Z,100.00
2023-04-11T13:07:44.826Z,100.00
2023-04-11T13:10:13.801Z,100.00
2023-04-11T13:12:44.323Z,100.00
2023-04-11T13:15:13.913Z,100.00
2023-04-11T13:17:43.541Z,100.00
2023-04-11T13:20:13.612Z,100.00
2023-04-11T13:22:42.903Z,100.00
2023-04-11T13:25:12.009Z,100.00
2023-04-11T13:27:40.221Z,100.00
2023-04-11T13:30:10.118Z,100.00
2023-04-11T13:32:37.969Z,100.00
2023-04-11T13:35:08.273Z,100.00
2023-04-11T13:37:36.194Z,100.00
2023-04-11T13:40:11.328Z,100.00
2023-04-11T13:42:39.287Z,100.00
2023-04-11T13:45:07.981Z,100.00
2023-04-11T13:47:38.374Z,100.00
2023-04-11T13:50:09.815Z,100.00
2023-04-11T13:52:37.815Z,100.00
2023-04-11T13:55:06.613Z,99.62
2023-04-11T13:57:34.418Z,100.00
2023-04-11T14:00:05.366Z,96.67
2023-04-11T14:02:33.282Z,96.01
2023-04-11T14:05:01.135Z,93.15
2023-04-11T14:07:30.579Z,90.09
2023-04-11T14:09:58.313Z,90.60
2023-04-11T14:12:27.450Z,90.86
2023-04-11T14:14:55.439Z,89.31
2023-04-11T14:17:23.206Z,87.66
2023-04-11T14:19:51.171Z,86.04
2023-04-11T14:22:18.978Z,86.26
2023-04-11T14:24:48.192Z,87.37
2023-04-11T14:27:15.967Z,86.20
2023-04-11T14:29:43.732Z,85.54
2023-04-11T14:32:11.702Z,86.70
2023-04-11T14:34:39.586Z,85.30
2023-04-11T14:37:07.666Z,84.52
2023-04-11T14:39:35.539Z,85.45
2023-04-11T14:42:04.880Z,85.27
2023-04-11T14:44:32.680Z,85.20
2023-04-11T14:47:00.465Z,85.13
2023-04-11T14:49:28.299Z,86.27
2023-04-11T14:51:56.098Z,84.87
2023-04-11T14:54:24.151Z,85.29
2023-04-11T14:56:52.393Z,84.75
2023-04-11T14:59:22.098Z,85.62
2023-04-11T15:01:49.959Z,83.09
2023-04-11T15:04:18.046Z,83.67
2023-04-11T15:06:45.927Z,83.12
2023-04-11T15:09:13.657Z,84.50
2023-04-11T15:11:41.442Z,84.20
2023-04-11T15:14:09.192Z,85.30
2023-04-11T15:16:38.288Z,85.91
2023-04-11T15:19:06.181Z,87.20
2023-04-11T15:21:33.960Z,87.87
2023-04-11T15:24:06.487Z,91.55
2023-04-11T15:26:34.466Z,94.73
2023-04-11T15:29:02.222Z,96.45
2023-04-11T15:31:30.737Z,99.34
2023-04-11T15:34:03.769Z,100.00
2023-04-11T15:36:31.653Z,100.00
2023-04-11T15:39:00.632Z,100.00
2023-04-11T15:41:28.405Z,100.00
2023-04-11T15:43:56.533Z,100.00
2023-04-11T15:46:27.122Z,100.00
2023-04-11T15:48:54.993Z,100.00
2023-04-11T15:51:24.642Z,100.00
2023-04-11T15:53:52.706Z,100.00
2023-04-11T15:56:20.466Z,100.00
2023-04-11T15:58:49.158Z,99.77
2023-04-11T16:01:25.537Z,96.66
2023-04-11T16:03:53.815Z,89.74
2023-04-11T16:06:22.495Z,89.92
2023-04-11T16:08:52.041Z,85.65
2023-04-11T16:11:19.813Z,83.55
2023-04-11T16:13:47.716Z,82.89
2023-04-11T16:16:15.607Z,82.64
2023-04-11T16:18:43.408Z,83.28
2023-04-11T16:21:15.763Z,83.54
2023-04-11T16:23:43.704Z,83.07
2023-04-11T16:26:12.863Z,84.85
2023-04-11T16:28:40.744Z,87.39
2023-04-11T16:31:09.348Z,90.68
2023-04-11T16:33:37.259Z,95.99
2023-04-11T16:36:05.687Z,100.00
2023-04-11T16:38:33.487Z,100.00
2023-04-11T16:41:01.603Z,100.00
2023-04-11T16:43:30.701Z,100.00
2023-04-11T16:45:58.568Z,100.00
2023-04-11T16:48:26.590Z,100.00
2023-04-11T16:50:54.396Z,100.00
2023-04-11T16:53:22.230Z,100.00
2023-04-11T16:55:50.456Z,100.00
2023-04-11T16:58:18.381Z,100.00
2023-04-11T17:00:49.079Z,100.00
2023-04-11T17:03:18.148Z,100.00
2023-04-11T17:05:46.748Z,100.00
2023-04-11T17:08:15.666Z,100.00
2023-04-11T17:10:44.153Z,100.00
2023-04-11T17:13:12.680Z,100.00
2023-04-11T17:15:40.936Z,100.00
2023-04-11T17:18:10.190Z,100.00
2023-04-11T17:20:37.994Z,100.00
2023-04-11T17:23:05.784Z,100.00
2023-04-11T17:25:33.623Z,100.00
2023-04-11T17:28:01.489Z,100.00
2023-04-11T17:30:30.204Z,100.00
2023-04-11T17:32:58.211Z,100.00
2023-04-11T17:35:28.464Z,100.00
2023-04-11T17:37:56.266Z,100.00
2023-04-11T17:40:24.088Z,100.00
2023-04-11T17:42:52.035Z,100.00
2023-04-11T17:45:20.520Z,100.00
2023-04-11T17:47:48.567Z,100.00
2023-04-11T17:50:16.990Z,100.00
2023-04-11T17:52:47.494Z,100.00
2023-04-11T17:55:19.104Z,100.00
2023-04-11T17:57:48.995Z,100.00
2023-04-11T18:00:23.116Z,100.00
2023-04-11T18:02:52.772Z,100.00
2023-04-11T18:05:24.353Z,100.00
2023-04-11T18:07:56.478Z,100.00
2023-04-11T18:10:25.870Z,100.00
2023-04-11T18:12:55.378Z,100.00
2023-04-11T18:15:23.617Z,100.00
2023-04-11T18:17:52.234Z,100.00
2023-04-11T18:20:20.553Z,100.00
2023-04-11T18:22:51.558Z,100.00
2023-04-11T18:25:21.300Z,100.00
2023-04-11T18:27:49.269Z,100.00
2023-04-11T18:30:18.034Z,100.00
2023-04-11T18:32:49.487Z,100.00
2023-04-11T18:35:18.343Z,100.00
2023-04-11T18:37:46.106Z,100.00
2023-04-11T18:40:15.701Z,100.00
2023-04-11T18:42:47.375Z,100.00
2023-04-11T18:45:17.965Z,100.00
2023-04-11T18:47:46.402Z,100.00
2023-04-11T18:50:14.851Z,100.00
2023-04-11T18:52:44.578Z,100.00
2023-04-11T18:55:13.226Z,100.00
2023-04-11T18:57:42.212Z,100.00
2023-04-11T19:00:18.582Z,100.00
2023-04-11T19:02:50.322Z,100.00
2023-04-11T19:05:19.254Z,100.00
2023-04-11T19:07:47.336Z,100.00
2023-04-11T19:10:15.116Z,100.00
2023-04-11T19:12:42.926Z,100.00
2023-04-11T19:15:13.438Z,100.00
2023-04-11T19:17:41.410Z,100.00
2023-04-11T19:20:12.568Z,100.00
2023-04-11T19:22:41.301Z,100.00
2023-04-11T19:25:11.508Z,100.00
2023-04-11T19:27:41.408Z,100.00
2023-04-11T19:30:13.766Z,100.00
2023-04-11T19:32:43.735Z,100.00
2023-04-11T19:35:12.420Z,100.00
2023-04-11T19:37:40.878Z,100.00
2023-04-11T19:40:11.471Z,100.00
2023-04-11T19:42:39.942Z,100.00
2023-04-11T19:45:09.631Z,100.00
2023-04-11T19:47:40.143Z,100.00
2023-04-11T19:50:09.008Z,100.00
2023-04-11T19:52:36.777Z,100.00
2023-04-11T19:55:04.949Z,100.00
2023-04-11T19:57:32.813Z,100.00
2023-04-11T20:00:00.660Z,100.00
2023-04-11T20:02:28.633Z,100.00
2023-04-11T20:04:58.254Z,100.00
2023-04-11T20:07:26.124Z,100.00
2023-04-11T20:09:53.943Z,100.00
2023-04-11T20:12:21.739Z,100.00
2023-04-11T20:14:49.524Z,100.00
2023-04-11T20:17:17.314Z,100.00
2023-04-11T20:19:47.506Z,100.00
2023-04-11T20:22:18.449Z,100.00
2023-04-11T20:24:47.088Z,100.00
2023-04-11T20:27:14.998Z,100.00
2023-04-11T20:29:43.006Z,100.00
2023-04-11T20:32:11.034Z,100.00
2023-04-11T20:34:38.766Z,100.00
2023-04-11T20:37:06.970Z,100.00
2023-04-11T20:39:36.437Z,100.00
2023-04-11T20:42:04.361Z,100.00
2023-04-11T20:44:34.157Z,100.00
2023-04-11T20:47:01.938Z,100.00
2023-04-11T20:49:31.813Z,100.00
2023-04-11T20:52:00.084Z,100.00
2023-04-11T20:54:28.399Z,100.00
2023-04-11T20:56:57.521Z,100.00
2023-04-11T20:59:26.268Z,100.00
2023-04-11T21:01:54.178Z,100.00
2023-04-11T21:04:23.409Z,100.00
2023-04-11T21:06:51.608Z,100.00
2023-04-11T21:09:20.535Z,100.00
2023-04-11T21:11:48.303Z,100.00
2023-04-11T21:14:17.398Z,100.00
2023-04-11T21:16:47.365Z,100.00
2023-04-11T21:19:15.132Z,100.00
2023-04-11T21:21:42.925Z,100.00
2023-04-11T21:24:10.779Z,100.00
2023-04-11T21:26:38.640Z,100.00
2023-04-11T21:29:06.408Z,100.00
2023-04-11T21:31:35.629Z,100.00
2023-04-11T21:34:03.450Z,100.00
2023-04-11T21:36:31.651Z,100.00
2023-04-11T21:38:59.458Z,100.00
2023-04-11T21:41:28.000Z,100.00
2023-04-11T21:43:55.995Z,100.00
2023-04-11T21:46:24.000Z,100.00
2023-04-11T21:48:53.162Z,100.00
2023-04-11T21:51:21.343Z,100.00
2023-04-11T21:53:49.156Z,100.00
2023-04-11T21:56:17.159Z,100.00
2023-04-11T21:58:44.945Z,100.00
2023-04-11T22:01:12.758Z,100.00
2023-04-11T22:03:41.472Z,100.00
2023-04-11T22:06:12.078Z,100.00
2023-04-11T22:08:39.936Z,100.00
2023-04-11T22:11:10.236Z,100.00
2023-04-11T22:13:39.630Z,100.00
2023-04-11T22:16:10.702Z,100.00
2023-04-11T22:18:46.720Z,100.00
2023-04-11T22:21:19.274Z,100.00
2023-04-11T22:23:48.592Z,100.00
2023-04-11T22:26:17.505Z,100.00
2023-04-11T22:28:45.481Z,100.00
2023-04-11T22:31:14.146Z,100.00
2023-04-11T22:33:41.962Z,100.00
2023-04-11T22:36:10.633Z,100.00
2023-04-11T22:38:40.279Z,100.00
2023-04-11T22:41:14.804Z,100.00
2023-04-11T22:43:42.697Z,100.00
2023-04-11T22:46:11.100Z,100.00
2023-04-11T22:48:38.963Z,100.00
2023-04-11T22:51:07.433Z,100.00
2023-04-11T22:53:42.206Z,100.00
2023-04-11T22:56:11.738Z,100.00
2023-04-11T22:58:40.251Z,100.00
2023-04-11T23:01:12.238Z,100.00
2023-04-11T23:03:40.240Z,100.00
2023-04-11T23:06:08.799Z,100.00
2023-04-11T23:08:37.099Z,100.00
2023-04-11T23:11:05.101Z,100.00
2023-04-11T23:13:34.264Z,100.00
2023-04-11T23:16:02.427Z,100.00
2023-04-11T23:18:30.232Z,100.00
2023-04-11T23:20:58.171Z,100.00
2023-04-11T23:23:25.945Z,100.00
2023-04-11T23:25:54.250Z,100.00
2023-04-11T23:28:24.117Z,100.00
2023-04-11T23:30:53.715Z,100.00
2023-04-11T23:33:22.273Z,100.00
2023-04-11T23:35:50.063Z,100.00
2023-04-11T23:38:18.000Z,100.00
2023-04-11T23:40:45.973Z,100.00
2023-04-11T23:43:13.707Z,100.00
2023-04-11T23:45:41.491Z,100.00
2023-04-11T23:48:10.624Z,100.00
2023-04-11T23:50:38.759Z,100.00
2023-04-11T23:53:06.673Z,100.00
2023-04-11T23:55:34.810Z,100.00
2023-04-11T23:58:02.605Z,100.00
